Time;durP1;ratioP1;P1;durP2;ratioP2;P2;SDS_P1;SDS_P2;PMS_P1;PMS_P2;Temp;Humidity;BMP_temperature;BMP_pressure;BME280_temperature;BME280_humidity;BME280_pressure;Samples;Min_cycle;Max_cycle;Signal;HPM_P1;HPM_P2
2022/08/14 00:01:16;;;;;;;;;;;26.80;96.30;;;;;;5179011;27;19977;-62
2022/08/14 00:03:42;;;;;;;;;;;26.80;96.30;;;;;;5168936;27;19903;-63
2022/08/14 00:06:08;;;;;;;;;;;26.80;96.40;;;;;;5168950;27;20213;-61
2022/08/14 00:08:35;;;;;;;;;;;26.70;96.70;;;;;;5151152;27;19903;-61
2022/08/14 00:11:01;;;;;;;;;;;26.70;96.40;;;;;;5154198;27;19914;-64
2022/08/14 00:13:28;;;;;;;;;;;26.80;96.30;;;;;;5162085;27;20214;-63
2022/08/14 00:15:55;;;;;;;;;;;26.70;96.30;;;;;;5153624;27;19907;-62
2022/08/14 00:18:28;;;;;;;;;;;26.70;96.20;;;;;;5168820;27;19934;-65
2022/08/14 00:20:55;;;;;;;;;;;26.70;96.30;;;;;;5168077;27;19949;-62
2022/08/14 00:23:21;;;;;;;;;;;26.70;96.50;;;;;;5168301;27;19910;-63
2022/08/14 00:25:49;;;;;;;;;;;26.70;96.50;;;;;;5166104;27;20207;-63
2022/08/14 00:28:15;;;;;;;;;;;26.70;96.50;;;;;;5156749;27;19907;-62
2022/08/14 00:30:42;;;;;;;;;;;26.60;96.60;;;;;;5149229;27;19982;-61
2022/08/14 00:33:08;;;;;;;;;;;26.60;96.70;;;;;;5168033;27;19907;-62
2022/08/14 00:35:34;;;;;;;;;;;26.50;96.60;;;;;;5167052;27;19907;-62
2022/08/14 00:38:01;;;;;;;;;;;26.50;96.70;;;;;;5160882;27;19953;-59
2022/08/14 00:40:30;;;;;;;;;;;26.50;96.70;;;;;;5158504;27;20243;-61
2022/08/14 00:42:56;;;;;;;;;;;26.50;96.70;;;;;;5148206;27;19911;-61
2022/08/14 00:45:22;;;;;;;;;;;26.50;96.70;;;;;;5164484;27;19949;-66
2022/08/14 00:47:48;;;;;;;;;;;26.50;96.60;;;;;;5166021;27;19953;-61
2022/08/14 00:50:17;;;;;;;;;;;26.60;96.50;;;;;;5167072;27;20191;-61
2022/08/14 00:52:44;;;;;;;;;;;26.60;96.40;;;;;;5167143;27;20098;-62
2022/08/14 00:55:10;;;;;;;;;;;26.60;96.30;;;;;;5167376;27;19907;-62
2022/08/14 00:57:37;;;;;;;;;;;26.60;96.20;;;;;;5165424;27;19911;-62
2022/08/14 01:00:13;;;;;;;;;;;26.60;96.10;;;;;;5165421;27;19906;-62
2022/08/14 01:02:42;;;;;;;;;;;26.70;96.10;;;;;;5164813;27;19902;-64
2022/08/14 01:05:22;;;;;;;;;;;26.70;96.00;;;;;;5164708;27;20160;-62
2022/08/14 01:07:50;;;;;;;;;;;26.70;95.90;;;;;;5164610;27;19911;-63
2022/08/14 01:10:17;;;;;;;;;;;26.70;95.90;;;;;;5165196;27;19942;-61
2022/08/14 01:12:43;;;;;;;;;;;26.70;95.90;;;;;;5167466;27;19943;-61
2022/08/14 01:15:10;;;;;;;;;;;26.70;95.80;;;;;;5167587;27;19903;-62
2022/08/14 01:23:07;;;;;;;;;;;26.80;95.70;;;;;;5167003;27;19948;-62
2022/08/14 01:25:33;;;;;;;;;;;26.70;95.60;;;;;;5166953;27;19903;-63
2022/08/14 01:28:00;;;;;;;;;;;26.70;95.60;;;;;;5166859;27;19914;-61
2022/08/14 01:30:26;;;;;;;;;;;26.70;95.60;;;;;;5167176;27;19903;-62
2022/08/14 01:32:53;;;;;;;;;;;26.70;95.60;;;;;;5166658;27;19906;-62
2022/08/14 01:35:20;;;;;;;;;;;26.70;95.60;;;;;;5167023;27;19937;-62
2022/08/14 01:37:47;;;;;;;;;;;26.70;95.60;;;;;;5167326;27;19907;-62
2022/08/14 01:40:15;;;;;;;;;;;26.70;95.70;;;;;;5166659;27;19899;-62
2022/08/14 01:42:42;;;;;;;;;;;26.70;95.60;;;;;;5167275;27;19961;-62
2022/08/14 01:45:11;;;;;;;;;;;26.70;95.60;;;;;;5166578;27;19903;-62
2022/08/14 01:47:38;;;;;;;;;;;26.70;95.60;;;;;;5166716;27;19913;-60
2022/08/14 01:50:05;;;;;;;;;;;26.70;95.60;;;;;;5165781;27;20214;-62
2022/08/14 01:52:33;;;;;;;;;;;26.70;95.60;;;;;;5166911;27;19975;-61
2022/08/14 01:55:00;;;;;;;;;;;26.70;95.60;;;;;;5166200;27;19903;-62
2022/08/14 01:57:27;;;;;;;;;;;26.70;95.60;;;;;;5166621;27;19915;-62
2022/08/14 01:59:55;;;;;;;;;;;26.70;95.60;;;;;;5166392;27;19903;-62
2022/08/14 02:02:21;;;;;;;;;;;26.70;95.60;;;;;;5166622;27;19903;-62
2022/08/14 02:04:48;;;;;;;;;;;26.70;95.60;;;;;;5147944;27;20063;-61
2022/08/14 02:07:14;;;;;;;;;;;26.70;95.50;;;;;;5166493;27;19948;-61
2022/08/14 02:09:42;;;;;;;;;;;26.70;95.50;;;;;;5166044;27;19902;-60
2022/08/14 02:12:09;;;;;;;;;;;26.70;95.40;;;;;;5166946;27;19910;-61
2022/08/14 02:14:39;;;;;;;;;;;26.60;95.40;;;;;;5166502;27;19899;-62
2022/08/14 02:17:08;;;;;;;;;;;26.60;95.40;;;;;;5166328;27;19910;-61
2022/08/14 02:19:34;;;;;;;;;;;26.60;95.40;;;;;;5166170;27;19910;-63
2022/08/14 02:22:02;;;;;;;;;;;26.60;95.40;;;;;;5166626;27;19955;-61
2022/08/14 02:24:29;;;;;;;;;;;26.60;95.40;;;;;;5165979;27;19910;-61
2022/08/14 02:26:58;;;;;;;;;;;26.60;95.40;;;;;;5166293;27;19907;-62
2022/08/14 02:29:27;;;;;;;;;;;26.60;95.40;;;;;;5166044;27;19910;-61
2022/08/14 02:31:55;;;;;;;;;;;26.50;95.60;;;;;;5166760;27;19907;-61
2022/08/14 02:34:30;;;;;;;;;;;26.50;95.40;;;;;;5166042;27;20148;-63
2022/08/14 02:37:01;;;;;;;;;;;26.50;95.30;;;;;;5166307;27;20091;-61
2022/08/14 02:39:31;;;;;;;;;;;26.50;95.30;;;;;;5166445;27;19909;-61
2022/08/14 02:41:57;;;;;;;;;;;26.50;95.30;;;;;;5167198;27;20015;-61
2022/08/14 02:44:26;;;;;;;;;;;26.50;95.30;;;;;;5165893;27;19910;-64
2022/08/14 02:46:55;;;;;;;;;;;26.50;95.30;;;;;;5166209;27;19907;-62
2022/08/14 02:49:25;;;;;;;;;;;26.50;95.30;;;;;;5166178;27;19903;-61
2022/08/14 02:51:53;;;;;;;;;;;26.50;95.30;;;;;;5166256;27;19935;-62
2022/08/14 02:54:19;;;;;;;;;;;26.50;95.30;;;;;;5165994;27;19903;-62
2022/08/14 02:56:45;;;;;;;;;;;26.50;95.30;;;;;;5166145;27;19903;-63
2022/08/14 02:59:12;;;;;;;;;;;26.50;95.30;;;;;;5165781;27;20107;-62
2022/08/14 03:01:39;;;;;;;;;;;26.50;95.30;;;;;;5168242;27;19907;-63
2022/08/14 03:04:06;;;;;;;;;;;26.50;95.30;;;;;;5170277;27;19903;-63
2022/08/14 03:06:32;;;;;;;;;;;26.50;95.30;;;;;;5169724;27;20191;-62
2022/08/14 03:09:00;;;;;;;;;;;26.50;95.30;;;;;;5169526;27;20136;-63
2022/08/14 03:11:26;;;;;;;;;;;26.50;95.30;;;;;;5169557;27;19914;-63
2022/08/14 03:13:52;;;;;;;;;;;26.40;95.20;;;;;;5169414;27;19899;-62
2022/08/14 03:16:22;;;;;;;;;;;26.50;95.20;;;;;;5170160;27;19903;-62
2022/08/14 03:18:51;;;;;;;;;;;26.40;95.10;;;;;;5169756;27;19986;-62
2022/08/14 03:21:19;;;;;;;;;;;26.40;95.20;;;;;;5169467;27;19907;-62
2022/08/14 03:23:47;;;;;;;;;;;26.40;95.10;;;;;;5169419;27;19903;-64
2022/08/14 03:26:17;;;;;;;;;;;26.40;94.90;;;;;;5169344;27;19903;-62
2022/08/14 03:28:44;;;;;;;;;;;26.40;95.00;;;;;;5169098;27;19980;-62
2022/08/14 03:31:11;;;;;;;;;;;26.40;95.00;;;;;;5169183;27;19911;-63
2022/08/14 03:33:39;;;;;;;;;;;26.40;95.10;;;;;;5169449;27;19899;-62
2022/08/14 03:36:11;;;;;;;;;;;26.30;95.10;;;;;;5169077;27;19907;-61
2022/08/14 03:38:41;;;;;;;;;;;26.40;95.10;;;;;;5169274;27;19909;-63
2022/08/14 03:41:15;;;;;;;;;;;26.30;95.10;;;;;;5169264;27;19918;-62
2022/08/14 03:43:45;;;;;;;;;;;26.40;95.10;;;;;;5169514;27;19996;-63
2022/08/14 03:46:13;;;;;;;;;;;26.30;95.10;;;;;;5169580;27;20055;-63
2022/08/14 03:48:40;;;;;;;;;;;26.30;95.10;;;;;;5168954;27;20072;-63
2022/08/14 03:51:07;;;;;;;;;;;26.30;94.90;;;;;;5169427;27;19948;-62
2022/08/14 03:53:37;;;;;;;;;;;26.30;94.90;;;;;;5168755;27;19908;-62
2022/08/14 03:56:04;;;;;;;;;;;26.30;94.80;;;;;;5169284;27;19911;-62
2022/08/14 03:58:31;;;;;;;;;;;26.30;94.70;;;;;;5169449;27;19915;-62
2022/08/14 04:01:01;;;;;;;;;;;26.30;94.70;;;;;;5169195;27;19911;-62
2022/08/14 04:03:27;;;;;;;;;;;26.30;94.70;;;;;;5168680;27;19983;-62
2022/08/14 04:05:53;;;;;;;;;;;26.20;94.60;;;;;;5169312;27;20178;-63
2022/08/14 04:08:20;;;;;;;;;;;26.20;94.60;;;;;;5168833;27;19911;-63
2022/08/14 04:10:46;;;;;;;;;;;26.20;94.60;;;;;;5168679;27;20012;-63
2022/08/14 04:13:16;;;;;;;;;;;26.20;94.50;;;;;;5167910;27;19907;-62
2022/08/14 04:15:46;;;;;;;;;;;26.20;94.40;;;;;;5166361;27;19907;-62
2022/08/14 04:18:12;;;;;;;;;;;26.20;94.50;;;;;;5163458;27;19907;-62
2022/08/14 04:20:40;;;;;;;;;;;26.10;94.40;;;;;;5166394;27;19907;-62
2022/08/14 04:23:06;;;;;;;;;;;26.10;94.40;;;;;;5162762;27;19907;-63
2022/08/14 04:25:35;;;;;;;;;;;26.10;94.20;;;;;;5167229;27;19914;-61
2022/08/14 04:28:02;;;;;;;;;;;26.10;94.40;;;;;;5161885;27;20207;-61
2022/08/14 04:30:29;;;;;;;;;;;26.10;94.20;;;;;;5167370;27;19907;-62
2022/08/14 04:32:56;;;;;;;;;;;26.10;94.20;;;;;;5160756;27;19914;-62
2022/08/14 04:35:22;;;;;;;;;;;26.10;94.10;;;;;;5168570;27;19902;-62
2022/08/14 04:43:35;;;;;;;;;;;26.00;94.00;;;;;;5168125;27;19914;-62
2022/08/14 04:46:02;;;;;;;;;;;26.00;94.20;;;;;;5163117;27;20183;-62
2022/08/14 04:48:28;;;;;;;;;;;26.00;94.20;;;;;;5164838;27;19918;-62
2022/08/14 04:50:56;;;;;;;;;;;26.00;94.20;;;;;;5168238;27;19926;-63
2022/08/14 04:53:27;;;;;;;;;;;26.00;94.20;;;;;;5167977;27;19909;-62
2022/08/14 04:55:54;;;;;;;;;;;26.00;94.20;;;;;;5167966;27;19918;-61
2022/08/14 04:58:23;;;;;;;;;;;26.00;94.20;;;;;;5167950;27;19915;-62
2022/08/14 05:00:50;;;;;;;;;;;26.00;94.30;;;;;;5167962;27;19952;-63
2022/08/14 05:03:19;;;;;;;;;;;26.00;94.40;;;;;;5167861;27;19974;-62
2022/08/14 05:05:49;;;;;;;;;;;26.00;94.40;;;;;;5167929;27;19966;-62
2022/08/14 05:08:16;;;;;;;;;;;26.00;94.50;;;;;;5167728;27;20125;-62
2022/08/14 05:10:44;;;;;;;;;;;26.00;94.50;;;;;;5167557;27;19903;-61
2022/08/14 05:13:12;;;;;;;;;;;26.00;94.60;;;;;;5167507;27;19927;-61
2022/08/14 05:15:39;;;;;;;;;;;26.00;94.60;;;;;;5167488;27;19903;-61
2022/08/14 05:18:11;;;;;;;;;;;26.00;94.60;;;;;;5167709;27;20234;-62
2022/08/14 05:20:39;;;;;;;;;;;26.00;94.70;;;;;;5167606;27;19914;-61
2022/08/14 05:23:06;;;;;;;;;;;25.90;94.60;;;;;;5167748;27;19907;-62
2022/08/14 05:25:33;;;;;;;;;;;25.90;94.70;;;;;;5166753;27;19913;-61
2022/08/14 05:28:25;;;;;;;;;;;25.90;94.70;;;;;;5167263;27;19918;-61
2022/08/14 05:30:54;;;;;;;;;;;25.90;94.70;;;;;;5162633;27;19911;-61
2022/08/14 05:33:24;;;;;;;;;;;25.90;94.60;;;;;;5167155;27;19907;-61
2022/08/14 05:35:52;;;;;;;;;;;25.90;94.60;;;;;;5163517;27;19915;-61
2022/08/14 05:38:19;;;;;;;;;;;25.90;94.60;;;;;;5162736;27;19907;-62
2022/08/14 05:40:55;;;;;;;;;;;25.90;94.60;;;;;;5166905;27;19911;-62
2022/08/14 05:43:22;;;;;;;;;;;25.90;94.40;;;;;;5166589;27;20194;-63
2022/08/14 05:46:17;;;;;;;;;;;25.90;94.40;;;;;;5166590;27;19907;-63
2022/08/14 05:48:57;;;;;;;;;;;;;;;;;;;;;
2022/08/14 05:51:24;;;;;;;;;;;25.80;94.30;;;;;;5158451;27;20191;-63
2022/08/14 05:53:50;;;;;;;;;;;25.80;94.20;;;;;;5166709;27;20240;-62
2022/08/14 05:56:16;;;;;;;;;;;25.80;94.40;;;;;;5167119;27;19911;-63
2022/08/14 05:58:42;;;;;;;;;;;25.80;94.30;;;;;;5166944;27;19915;-63
2022/08/14 06:01:10;;;;;;;;;;;25.70;94.30;;;;;;5166845;27;19982;-62
2022/08/14 06:03:36;;;;;;;;;;;25.80;94.30;;;;;;5166874;27;20155;-62
2022/08/14 06:06:02;;;;;;;;;;;25.80;94.30;;;;;;5166993;27;19907;-63
2022/08/14 06:08:30;;;;;;;;;;;25.80;94.30;;;;;;5166704;27;19917;-62
2022/08/14 06:11:01;;;;;;;;;;;25.80;94.30;;;;;;5166844;27;20150;-62
2022/08/14 06:13:28;;;;;;;;;;;25.80;94.30;;;;;;5166810;27;19907;-62
2022/08/14 06:15:54;;;;;;;;;;;25.80;94.20;;;;;;5166994;27;19915;-62
2022/08/14 06:18:21;;;;;;;;;;;25.80;94.30;;;;;;5166855;27;19965;-63
2022/08/14 06:20:47;;;;;;;;;;;25.80;94.30;;;;;;5166887;27;19911;-62
2022/08/14 06:23:13;;;;;;;;;;;25.80;94.40;;;;;;5166919;27;19903;-62
2022/08/14 06:25:39;;;;;;;;;;;25.80;94.50;;;;;;5164600;27;19911;-62
2022/08/14 06:28:05;;;;;;;;;;;25.70;94.50;;;;;;5160285;27;19967;-63
2022/08/14 06:30:33;;;;;;;;;;;25.80;94.50;;;;;;5165318;27;19903;-62
2022/08/14 06:32:59;;;;;;;;;;;25.80;94.50;;;;;;5159545;27;19919;-63
2022/08/14 06:35:25;;;;;;;;;;;25.80;94.40;;;;;;5166478;27;19911;-62
2022/08/14 06:37:51;;;;;;;;;;;25.80;94.40;;;;;;5162468;27;20044;-63
2022/08/14 06:40:20;;;;;;;;;;;25.80;94.40;;;;;;5170467;27;19903;-62
2022/08/14 06:42:46;;;;;;;;;;;25.80;94.50;;;;;;5171333;27;19907;-63
2022/08/14 06:45:12;;;;;;;;;;;25.70;94.50;;;;;;5170800;27;20179;-63
2022/08/14 06:47:39;;;;;;;;;;;25.80;94.60;;;;;;5170866;27;20210;-63
2022/08/14 06:50:07;;;;;;;;;;;25.80;94.70;;;;;;5170886;27;19907;-63
2022/08/14 06:52:33;;;;;;;;;;;25.80;94.70;;;;;;5171026;27;19938;-63
2022/08/14 06:54:59;;;;;;;;;;;25.80;94.80;;;;;;5170217;27;19914;-64
2022/08/14 06:57:34;;;;;;;;;;;25.80;94.80;;;;;;5170408;27;19946;-63
2022/08/14 07:00:00;;;;;;;;;;;25.80;94.90;;;;;;5170519;27;19903;-62
2022/08/14 07:07:56;;;;;;;;;;;25.70;95.00;;;;;;5170282;27;19922;-62
2022/08/14 07:10:22;;;;;;;;;;;25.70;95.00;;;;;;5170182;27;20247;-63
2022/08/14 07:12:48;;;;;;;;;;;25.70;94.90;;;;;;5169916;27;20240;-63
2022/08/14 07:15:15;;;;;;;;;;;25.70;95.00;;;;;;5169925;27;19903;-62
2022/08/14 07:17:48;;;;;;;;;;;25.70;94.90;;;;;;5170858;27;19913;-63
2022/08/14 07:20:16;;;;;;;;;;;25.70;94.90;;;;;;5169916;27;20283;-62
2022/08/14 07:22:42;;;;;;;;;;;25.70;94.80;;;;;;5170728;27;19919;-63
2022/08/14 07:25:08;;;;;;;;;;;25.70;94.80;;;;;;5169567;27;19907;-63
2022/08/14 07:27:35;;;;;;;;;;;25.70;94.80;;;;;;5170441;27;19915;-63
2022/08/14 07:30:04;;;;;;;;;;;25.70;94.80;;;;;;5170063;27;19913;-62
2022/08/14 07:32:30;;;;;;;;;;;25.70;94.80;;;;;;5170435;27;19968;-63
2022/08/14 07:34:56;;;;;;;;;;;25.70;94.70;;;;;;5169683;27;19906;-62
2022/08/14 07:37:22;;;;;;;;;;;25.70;94.60;;;;;;5170125;27;19950;-62
2022/08/14 07:39:50;;;;;;;;;;;25.70;94.60;;;;;;5169689;27;19910;-63
2022/08/14 07:42:16;;;;;;;;;;;25.70;94.60;;;;;;5169541;27;19934;-63
2022/08/14 07:44:42;;;;;;;;;;;25.70;94.60;;;;;;5169834;27;20182;-63
2022/08/14 07:47:09;;;;;;;;;;;25.70;94.60;;;;;;5168868;27;19911;-63
2022/08/14 07:49:35;;;;;;;;;;;25.70;94.60;;;;;;5168531;27;19942;-61
2022/08/14 07:52:02;;;;;;;;;;;25.70;94.60;;;;;;5169842;27;19948;-62
2022/08/14 07:54:30;;;;;;;;;;;25.60;94.60;;;;;;5169372;27;19978;-62
2022/08/14 07:56:59;;;;;;;;;;;25.60;94.60;;;;;;5169534;27;19914;-62
2022/08/14 07:59:25;;;;;;;;;;;25.60;94.60;;;;;;5169248;27;20214;-62
2022/08/14 08:01:52;;;;;;;;;;;25.60;94.70;;;;;;5169411;27;19954;-61
2022/08/14 08:04:22;;;;;;;;;;;25.60;94.70;;;;;;5168896;27;19917;-61
2022/08/14 08:06:49;;;;;;;;;;;25.60;94.80;;;;;;5168947;27;19915;-62
2022/08/14 08:09:17;;;;;;;;;;;25.60;94.80;;;;;;5168894;27;19941;-62
2022/08/14 08:11:43;;;;;;;;;;;25.60;94.80;;;;;;5169284;27;19944;-61
2022/08/14 08:14:09;;;;;;;;;;;25.60;94.90;;;;;;5168684;27;19907;-62
2022/08/14 08:16:37;;;;;;;;;;;25.60;94.90;;;;;;5169124;27;19911;-62
2022/08/14 08:19:07;;;;;;;;;;;25.60;94.90;;;;;;5161448;27;20077;-61
2022/08/14 08:21:37;;;;;;;;;;;25.60;95.00;;;;;;5149161;27;19914;-61
2022/08/14 08:24:04;;;;;;;;;;;25.60;95.10;;;;;;5147327;27;19980;-60
2022/08/14 08:26:30;;;;;;;;;;;25.60;95.20;;;;;;5146906;27;19907;-59
2022/08/14 08:28:57;;;;;;;;;;;25.60;95.30;;;;;;5147339;27;20218;-60
2022/08/14 08:31:24;;;;;;;;;;;25.60;95.30;;;;;;5147354;27;20000;-60
2022/08/14 08:33:51;;;;;;;;;;;25.50;95.30;;;;;;5138898;27;19914;-60
2022/08/14 08:36:17;;;;;;;;;;;25.50;95.30;;;;;;5147333;27;19907;-60
2022/08/14 08:38:45;;;;;;;;;;;25.50;95.30;;;;;;5147197;27;19908;-60
2022/08/14 08:41:11;;;;;;;;;;;25.50;95.40;;;;;;5146960;27;20260;-61
2022/08/14 08:43:38;;;;;;;;;;;25.50;95.50;;;;;;5147264;27;19907;-61
2022/08/14 08:46:15;;;;;;;;;;;25.50;95.50;;;;;;5147053;27;19945;-62
2022/08/14 08:48:48;;;;;;;;;;;25.50;95.50;;;;;;5146650;27;19943;-60
2022/08/14 08:51:21;;;;;;;;;;;25.50;95.50;;;;;;5147344;27;19915;-61
2022/08/14 08:53:55;;;;;;;;;;;25.50;95.50;;;;;;5146681;27;20221;-61
2022/08/14 08:56:31;;;;;;;;;;;25.50;95.50;;;;;;5147226;27;20262;-62
2022/08/14 08:58:57;;;;;;;;;;;25.50;95.50;;;;;;5146333;27;19915;-62
2022/08/14 09:01:29;;;;;;;;;;;25.40;95.50;;;;;;5147138;27;19923;-61
2022/08/14 09:04:04;;;;;;;;;;;25.50;95.60;;;;;;5146603;27;19979;-62
2022/08/14 09:06:31;;;;;;;;;;;25.50;95.60;;;;;;5146649;27;19969;-61
2022/08/14 09:08:57;;;;;;;;;;;25.40;95.70;;;;;;5146532;27;19979;-61
2022/08/14 09:11:23;;;;;;;;;;;25.50;95.70;;;;;;5146750;27;19919;-61
2022/08/14 09:13:50;;;;;;;;;;;25.50;95.80;;;;;;5146399;27;20190;-61
2022/08/14 09:16:24;;;;;;;;;;;25.40;95.70;;;;;;5146628;27;20206;-61
2022/08/14 09:18:50;;;;;;;;;;;25.40;95.60;;;;;;5146433;27;20098;-61
2022/08/14 09:21:17;;;;;;;;;;;25.40;95.70;;;;;;5146488;27;19911;-62
2022/08/14 09:23:43;;;;;;;;;;;25.40;95.60;;;;;;5146136;27;19903;-61
2022/08/14 09:26:09;;;;;;;;;;;25.40;95.60;;;;;;5146454;27;19970;-61
2022/08/14 09:28:36;;;;;;;;;;;25.40;95.60;;;;;;5146250;27;19918;-61
2022/08/14 09:31:02;;;;;;;;;;;25.40;95.50;;;;;;5146637;27;19949;-62
2022/08/14 09:33:33;;;;;;;;;;;25.40;95.60;;;;;;5146081;27;20129;-61
2022/08/14 09:36:18;;;;;;;;;;;25.40;95.60;;;;;;5146021;27;19907;-62
2022/08/14 09:38:53;;;;;;;;;;;25.40;95.60;;;;;;5146245;27;20099;-62
2022/08/14 09:41:31;;;;;;;;;;;25.40;95.70;;;;;;5146227;27;20117;-61
2022/08/14 09:43:58;;;;;;;;;;;25.40;95.60;;;;;;5146363;27;19981;-61
2022/08/14 09:46:26;;;;;;;;;;;25.40;95.70;;;;;;5145838;27;20206;-64
2022/08/14 09:48:59;;;;;;;;;;;25.40;95.70;;;;;;5146139;27;20192;-61
2022/08/14 09:51:27;;;;;;;;;;;25.30;95.70;;;;;;5146330;27;19911;-61
2022/08/14 09:54:01;;;;;;;;;;;25.40;95.70;;;;;;5145604;27;19907;-62
2022/08/14 09:56:28;;;;;;;;;;;25.40;95.60;;;;;;5145973;27;19912;-61
2022/08/14 09:58:57;;;;;;;;;;;25.40;95.60;;;;;;5145699;27;19915;-61
2022/08/14 10:01:34;;;;;;;;;;;25.40;95.60;;;;;;5146085;27;20134;-62
2022/08/14 10:04:01;;;;;;;;;;;25.40;95.60;;;;;;5145610;27;19904;-62
2022/08/14 10:06:28;;;;;;;;;;;25.40;95.60;;;;;;5145564;27;19911;-63
2022/08/14 10:09:02;;;;;;;;;;;25.30;95.50;;;;;;5145385;27;19938;-61
2022/08/14 10:11:35;;;;;;;;;;;25.30;95.50;;;;;;5145132;27;19990;-61
2022/08/14 10:14:17;;;;;;;;;;;25.30;95.50;;;;;;5145730;28;19918;-62
2022/08/14 10:16:48;;;;;;;;;;;25.30;95.50;;;;;;5145781;28;19916;-64
2022/08/14 10:19:15;;;;;;;;;;;25.30;95.60;;;;;;5145535;28;20100;-60
2022/08/14 10:21:45;;;;;;;;;;;25.30;95.60;;;;;;5145716;28;19918;-61
2022/08/14 10:24:22;;;;;;;;;;;25.30;95.60;;;;;;5145413;28;19967;-61
2022/08/14 10:26:59;;;;;;;;;;;25.30;95.60;;;;;;5145621;28;19915;-60
2022/08/14 10:29:39;;;;;;;;;;;25.30;95.60;;;;;;5145656;28;19910;-61
2022/08/14 10:32:07;;;;;;;;;;;25.30;95.60;;;;;;5145902;28;19911;-61
2022/08/14 10:34:34;;;;;;;;;;;25.30;95.60;;;;;;5145394;28;20099;-61
2022/08/14 10:37:06;;;;;;;;;;;25.30;95.50;;;;;;5146148;28;19912;-61
2022/08/14 10:39:34;;;;;;;;;;;25.30;95.50;;;;;;5146044;28;19982;-61
2022/08/14 10:42:05;;;;;;;;;;;25.30;95.50;;;;;;5127290;28;19933;-60
2022/08/14 10:44:34;;;;;;;;;;;25.30;95.50;;;;;;5145771;28;20235;-61
2022/08/14 10:47:06;;;;;;;;;;;25.30;95.50;;;;;;5145604;27;19923;-61
2022/08/14 10:49:33;;;;;;;;;;;25.30;95.40;;;;;;5145051;28;20210;-61
2022/08/14 10:52:04;;;;;;;;;;;25.20;95.40;;;;;;5145452;28;19918;-60
2022/08/14 10:54:32;;;;;;;;;;;25.20;95.70;;;;;;5126859;28;20099;-60
2022/08/14 10:57:20;;;;;;;;;;;25.20;95.50;;;;;;5145336;28;19911;-62
2022/08/14 10:59:50;;;;;;;;;;;25.20;95.40;;;;;;5145205;28;19957;-61
2022/08/14 11:02:19;;;;;;;;;;;25.20;95.50;;;;;;5145340;28;19919;-61
2022/08/14 11:05:06;;;;;;;;;;;25.20;95.50;;;;;;5145088;28;19907;-61
2022/08/14 11:07:38;;;;;;;;;;;25.20;95.60;;;;;;5145090;28;19977;-61
2022/08/14 11:10:12;;;;;;;;;;;25.20;95.60;;;;;;5145236;28;20167;-61
2022/08/14 11:12:47;;;;;;;;;;;25.20;95.60;;;;;;5145458;28;19912;-62
2022/08/14 11:15:18;;;;;;;;;;;25.20;95.60;;;;;;5145419;28;19918;-61
2022/08/14 11:17:47;;;;;;;;;;;25.20;95.60;;;;;;5145802;28;19915;-61
2022/08/14 11:20:15;;;;;;;;;;;25.20;95.60;;;;;;5144844;28;19948;-62
2022/08/14 11:22:41;;;;;;;;;;;25.30;95.60;;;;;;5146000;27;19952;-62
2022/08/14 11:25:09;;;;;;;;;;;25.30;95.60;;;;;;5149368;27;20103;-60
2022/08/14 11:27:37;;;;;;;;;;;25.20;95.70;;;;;;5148895;27;20084;-62
2022/08/14 11:30:06;;;;;;;;;;;25.30;95.70;;;;;;5148851;27;19938;-61
2022/08/14 11:32:32;;;;;;;;;;;25.30;95.80;;;;;;5148836;27;19911;-60
2022/08/14 11:35:01;;;;;;;;;;;25.30;95.80;;;;;;5148279;27;19912;-61
2022/08/14 11:37:32;;;;;;;;;;;25.30;95.80;;;;;;5148944;27;20091;-62
2022/08/14 11:40:01;;;;;;;;;;;25.30;95.80;;;;;;5148197;27;19908;-62
2022/08/14 11:42:28;;;;;;;;;;;25.30;95.80;;;;;;5148610;27;20057;-62
2022/08/14 11:44:59;;;;;;;;;;;25.30;95.80;;;;;;5148378;27;19908;-61
2022/08/14 11:47:25;;;;;;;;;;;25.30;95.80;;;;;;5148313;27;19982;-59
2022/08/14 11:49:52;;;;;;;;;;;25.30;95.90;;;;;;5147941;27;19915;-61
2022/08/14 11:52:18;;;;;;;;;;;25.30;95.80;;;;;;5148447;27;19911;-61
2022/08/14 11:54:55;;;;;;;;;;;25.30;95.80;;;;;;5147858;27;19944;-60
2022/08/14 11:57:21;;;;;;;;;;;25.40;95.90;;;;;;5148164;27;19915;-62
2022/08/14 11:59:47;;;;;;;;;;;25.30;95.90;;;;;;5147873;27;19949;-60
2022/08/14 12:02:15;;;;;;;;;;;25.30;95.90;;;;;;5148010;27;19915;-61
2022/08/14 12:04:51;;;;;;;;;;;25.40;95.80;;;;;;5129301;27;19907;-62
2022/08/14 12:07:17;;;;;;;;;;;25.30;95.80;;;;;;5148218;27;20072;-63
2022/08/14 12:09:44;;;;;;;;;;;25.40;95.80;;;;;;5147764;27;19907;-62
2022/08/14 12:12:17;;;;;;;;;;;25.40;95.70;;;;;;5148371;27;19986;-61
2022/08/14 12:14:55;;;;;;;;;;;25.40;95.70;;;;;;5147418;27;19974;-61
2022/08/14 12:17:25;;;;;;;;;;;25.40;95.70;;;;;;5148225;27;19911;-62
2022/08/14 12:20:00;;;;;;;;;;;25.40;95.80;;;;;;5147497;27;19908;-61
2022/08/14 12:22:38;;;;;;;;;;;25.40;95.80;;;;;;5147925;27;19911;-63
2022/08/14 12:25:06;;;;;;;;;;;25.40;95.80;;;;;;5147679;27;19943;-62
2022/08/14 12:27:35;;;;;;;;;;;25.40;95.80;;;;;;5129082;27;19990;-61
2022/08/14 12:30:02;;;;;;;;;;;25.50;95.80;;;;;;5147687;27;19978;-62
2022/08/14 12:32:46;;;;;;;;;;;25.40;95.80;;;;;;5147909;27;19957;-63
2022/08/14 12:35:13;;;;;;;;;;;25.50;95.80;;;;;;5146904;27;19907;-62
2022/08/14 12:37:46;;;;;;;;;;;25.50;95.90;;;;;;5147598;27;20179;-62
2022/08/14 12:40:13;;;;;;;;;;;25.50;95.90;;;;;;5147574;27;19908;-61
2022/08/14 12:42:39;;;;;;;;;;;25.50;96.00;;;;;;5147892;27;19986;-63
2022/08/14 12:45:06;;;;;;;;;;;25.50;96.10;;;;;;5147553;27;20191;-61
2022/08/14 12:47:32;;;;;;;;;;;25.50;96.10;;;;;;5147042;27;20107;-62
2022/08/14 12:49:59;;;;;;;;;;;25.60;96.00;;;;;;5128638;27;19908;-61
2022/08/14 12:52:39;;;;;;;;;;;25.60;96.00;;;;;;5147576;27;20186;-60
2022/08/14 12:55:15;;;;;;;;;;;25.60;95.90;;;;;;5147470;27;19930;-61
2022/08/14 12:57:45;;;;;;;;;;;25.60;95.90;;;;;;5147145;27;19920;-62
2022/08/14 13:00:17;;;;;;;;;;;25.60;95.90;;;;;;5146804;27;19916;-62
2022/08/14 13:02:53;;;;;;;;;;;25.70;96.00;;;;;;5147407;27;19922;-64
2022/08/14 13:05:21;;;;;;;;;;;25.70;96.00;;;;;;5146684;27;20218;-62
2022/08/14 13:07:51;;;;;;;;;;;25.70;96.00;;;;;;5147119;27;19919;-63
2022/08/14 13:10:19;;;;;;;;;;;25.70;95.90;;;;;;5146724;27;19944;-61
2022/08/14 13:12:47;;;;;;;;;;;25.70;95.90;;;;;;5147613;27;19951;-60
2022/08/14 13:15:17;;;;;;;;;;;25.70;95.80;;;;;;5146684;27;19904;-60
2022/08/14 13:17:43;;;;;;;;;;;25.70;95.70;;;;;;5147298;27;19912;-61
2022/08/14 13:20:10;;;;;;;;;;;25.70;95.80;;;;;;5146645;27;19907;-61
2022/08/14 13:22:40;;;;;;;;;;;25.70;95.70;;;;;;5147344;27;19914;-61
2022/08/14 13:25:07;;;;;;;;;;;25.80;95.70;;;;;;5146443;27;19965;-62
2022/08/14 13:27:35;;;;;;;;;;;25.80;95.80;;;;;;5146562;27;19954;-62
2022/08/14 13:30:04;;;;;;;;;;;25.90;95.80;;;;;;5146177;27;20148;-61
2022/08/14 13:32:31;;;;;;;;;;;25.80;95.80;;;;;;5146737;27;19911;-63
2022/08/14 13:34:57;;;;;;;;;;;25.90;95.80;;;;;;5145917;27;19911;-62
2022/08/14 13:37:24;;;;;;;;;;;25.90;95.80;;;;;;5146548;27;20177;-62
2022/08/14 13:39:54;;;;;;;;;;;25.90;95.90;;;;;;5145845;27;20309;-62
2022/08/14 13:42:21;;;;;;;;;;;25.90;95.80;;;;;;5146245;27;19911;-62
2022/08/14 13:44:52;;;;;;;;;;;25.90;95.80;;;;;;5145565;27;20191;-63
2022/08/14 13:47:31;;;;;;;;;;;25.90;95.70;;;;;;5145788;27;20222;-63
2022/08/14 13:50:01;;;;;;;;;;;25.90;95.80;;;;;;5146157;27;19907;-63
2022/08/14 13:52:33;;;;;;;;;;;25.90;95.80;;;;;;5146130;27;19915;-61
2022/08/14 13:55:04;;;;;;;;;;;26.00;95.90;;;;;;5127412;28;20103;-62
2022/08/14 13:57:38;;;;;;;;;;;26.00;95.80;;;;;;5146090;27;19919;-62
2022/08/14 14:00:12;;;;;;;;;;;26.00;95.80;;;;;;5145751;27;19912;-61
2022/08/14 14:02:43;;;;;;;;;;;26.00;95.90;;;;;;5146799;27;19915;-61
2022/08/14 14:05:11;;;;;;;;;;;26.00;95.90;;;;;;5145388;27;19938;-60
2022/08/14 14:07:38;;;;;;;;;;;26.00;95.90;;;;;;5145917;27;19915;-62
2022/08/14 14:10:06;;;;;;;;;;;26.10;95.90;;;;;;5145856;27;19930;-62
2022/08/14 14:12:55;;;;;;;;;;;26.10;95.90;;;;;;5146517;28;19950;-63
2022/08/14 14:15:21;;;;;;;;;;;26.10;95.90;;;;;;5145878;28;19912;-63
2022/08/14 14:17:48;;;;;;;;;;;26.10;95.80;;;;;;5146005;28;20105;-61
2022/08/14 14:20:16;;;;;;;;;;;26.10;95.80;;;;;;5145419;28;20210;-62
2022/08/14 14:22:44;;;;;;;;;;;26.10;95.70;;;;;;5145644;28;19912;-61
2022/08/14 14:25:13;;;;;;;;;;;26.10;95.80;;;;;;5145340;28;19971;-61
2022/08/14 14:27:44;;;;;;;;;;;26.20;95.80;;;;;;5145749;28;19923;-61
2022/08/14 14:30:11;;;;;;;;;;;26.20;95.70;;;;;;5145418;28;19970;-61
2022/08/14 14:32:42;;;;;;;;;;;26.20;95.70;;;;;;5145686;28;19911;-61
2022/08/14 14:35:10;;;;;;;;;;;26.20;95.70;;;;;;5145295;28;20013;-63
2022/08/14 14:37:45;;;;;;;;;;;26.30;95.70;;;;;;5145734;28;20037;-62
2022/08/14 14:40:12;;;;;;;;;;;26.30;95.60;;;;;;5145157;28;19984;-62
2022/08/14 14:42:44;;;;;;;;;;;26.30;95.60;;;;;;5145813;28;19934;-62
2022/08/14 14:45:14;;;;;;;;;;;26.40;95.70;;;;;;5145274;28;19903;-61